sensor_id;sensor_type;location;lat;lon;timestamp;P1;durP1;ratioP1;P2;durP2;ratioP2
15655;SDS011;7928;43.614;1.456;2023-12-04T00:00:09;2.13;;;1.30;;
15655;SDS011;7928;43.614;1.456;2023-12-04T00:02:36;2.63;;;1.10;;
15655;SDS011;7928;43.614;1.456;2023-12-04T00:05:04;1.53;;;1.17;;
15655;SDS011;7928;43.614;1.456;2023-12-04T00:07:32;2.07;;;1.20;;
15655;SDS011;7928;43.614;1.456;2023-12-04T00:09:59;1.97;;;1.10;;
15655;SDS011;7928;43.614;1.456;2023-12-04T00:12:26;1.70;;;1.27;;
15655;SDS011;7928;43.614;1.456;2023-12-04T00:14:54;1.60;;;1.00;;
15655;SDS011;7928;43.614;1.456;2023-12-04T00:17:21;2.20;;;1.20;;
15655;SDS011;7928;43.614;1.456;2023-12-04T00:19:48;2.70;;;1.40;;
15655;SDS011;7928;43.614;1.456;2023-12-04T00:22:15;3.63;;;1.27;;
15655;SDS011;7928;43.614;1.456;2023-12-04T00:24:42;3.73;;;1.30;;
15655;SDS011;7928;43.614;1.456;2023-12-04T00:27:09;1.70;;;1.10;;
15655;SDS011;7928;43.614;1.456;2023-12-04T00:29:37;2.53;;;1.40;;
15655;SDS011;7928;43.614;1.456;2023-12-04T00:32:05;2.67;;;1.60;;
15655;SDS011;7928;43.614;1.456;2023-12-04T00:34:32;2.57;;;1.60;;
15655;SDS011;7928;43.614;1.456;2023-12-04T00:36:59;3.53;;;1.37;;
15655;SDS011;7928;43.614;1.456;2023-12-04T00:39:26;2.63;;;1.43;;
15655;SDS011;7928;43.614;1.456;2023-12-04T00:41:53;3.93;;;1.70;;
15655;SDS011;7928;43.614;1.456;2023-12-04T00:44:20;3.10;;;1.30;;
15655;SDS011;7928;43.614;1.456;2023-12-04T00:46:47;2.83;;;1.57;;
15655;SDS011;7928;43.614;1.456;2023-12-04T00:49:15;3.63;;;1.90;;
15655;SDS011;7928;43.614;1.456;2023-12-04T00:51:42;2.63;;;1.43;;
15655;SDS011;7928;43.614;1.456;2023-12-04T00:54:10;2.57;;;1.47;;
15655;SDS011;7928;43.614;1.456;2023-12-04T00:56:37;2.73;;;1.40;;
15655;SDS011;7928;43.614;1.456;2023-12-04T00:59:05;1.60;;;1.40;;
15655;SDS011;7928;43.614;1.456;2023-12-04T01:01:32;1.90;;;1.27;;
15655;SDS011;7928;43.614;1.456;2023-12-04T01:03:59;2.20;;;1.50;;
15655;SDS011;7928;43.614;1.456;2023-12-04T01:06:27;3.70;;;1.53;;
15655;SDS011;7928;43.614;1.456;2023-12-04T01:08:55;2.70;;;1.40;;
15655;SDS011;7928;43.614;1.456;2023-12-04T01:11:22;4.23;;;1.50;;
15655;SDS011;7928;43.614;1.456;2023-12-04T01:13:49;3.10;;;1.37;;
15655;SDS011;7928;43.614;1.456;2023-12-04T01:16:16;4.10;;;1.47;;
15655;SDS011;7928;43.614;1.456;2023-12-04T01:18:43;3.47;;;1.83;;
15655;SDS011;7928;43.614;1.456;2023-12-04T01:21:10;5.37;;;1.70;;
15655;SDS011;7928;43.614;1.456;2023-12-04T01:23:38;1.73;;;1.03;;
15655;SDS011;7928;43.614;1.456;2023-12-04T01:26:05;3.90;;;1.67;;
15655;SDS011;7928;43.614;1.456;2023-12-04T01:28:32;3.67;;;1.60;;
15655;SDS011;7928;43.614;1.456;2023-12-04T01:30:59;2.80;;;1.37;;
15655;SDS011;7928;43.614;1.456;2023-12-04T01:33:26;2.83;;;1.53;;
15655;SDS011;7928;43.614;1.456;2023-12-04T01:35:53;3.37;;;1.67;;
15655;SDS011;7928;43.614;1.456;2023-12-04T01:38:20;2.13;;;1.50;;
15655;SDS011;7928;43.614;1.456;2023-12-04T01:40:48;2.37;;;1.17;;
15655;SDS011;7928;43.614;1.456;2023-12-04T01:43:16;2.80;;;1.40;;
15655;SDS011;7928;43.614;1.456;2023-12-04T01:45:43;2.33;;;1.43;;
15655;SDS011;7928;43.614;1.456;2023-12-04T01:48:10;3.53;;;1.40;;
15655;SDS011;7928;43.614;1.456;2023-12-04T01:50:39;1.90;;;1.23;;
15655;SDS011;7928;43.614;1.456;2023-12-04T01:53:06;2.30;;;1.60;;
15655;SDS011;7928;43.614;1.456;2023-12-04T01:55:33;2.80;;;1.77;;
15655;SDS011;7928;43.614;1.456;2023-12-04T01:58:03;4.37;;;1.73;;
15655;SDS011;7928;43.614;1.456;2023-12-04T02:00:31;3.17;;;1.40;;
15655;SDS011;7928;43.614;1.456;2023-12-04T02:02:58;2.70;;;1.70;;
15655;SDS011;7928;43.614;1.456;2023-12-04T02:05:26;2.30;;;1.57;;
15655;SDS011;7928;43.614;1.456;2023-12-04T02:07:53;3.13;;;1.50;;
15655;SDS011;7928;43.614;1.456;2023-12-04T02:10:20;5.50;;;1.87;;
15655;SDS011;7928;43.614;1.456;2023-12-04T02:12:48;3.77;;;1.60;;
15655;SDS011;7928;43.614;1.456;2023-12-04T02:15:16;3.17;;;1.67;;
15655;SDS011;7928;43.614;1.456;2023-12-04T02:17:43;3.47;;;1.60;;
15655;SDS011;7928;43.614;1.456;2023-12-04T02:20:12;3.37;;;1.43;;
15655;SDS011;7928;43.614;1.456;2023-12-04T02:22:39;3.67;;;1.63;;
15655;SDS011;7928;43.614;1.456;2023-12-04T02:25:08;4.47;;;1.90;;
15655;SDS011;7928;43.614;1.456;2023-12-04T02:27:38;3.57;;;1.27;;
15655;SDS011;7928;43.614;1.456;2023-12-04T02:30:10;2.70;;;1.80;;
15655;SDS011;7928;43.614;1.456;2023-12-04T02:32:43;4.07;;;1.60;;
15655;SDS011;7928;43.614;1.456;2023-12-04T02:35:11;3.00;;;1.43;;
15655;SDS011;7928;43.614;1.456;2023-12-04T02:37:40;4.67;;;2.23;;
15655;SDS011;7928;43.614;1.456;2023-12-04T02:40:10;3.77;;;1.60;;
15655;SDS011;7928;43.614;1.456;2023-12-04T02:42:38;4.73;;;1.60;;
15655;SDS011;7928;43.614;1.456;2023-12-04T02:45:06;4.63;;;1.80;;
15655;SDS011;7928;43.614;1.456;2023-12-04T02:47:33;3.77;;;2.10;;
15655;SDS011;7928;43.614;1.456;2023-12-04T02:50:00;2.47;;;1.70;;
15655;SDS011;7928;43.614;1.456;2023-12-04T02:52:27;3.17;;;2.10;;
15655;SDS011;7928;43.614;1.456;2023-12-04T02:54:54;4.20;;;2.07;;
15655;SDS011;7928;43.614;1.456;2023-12-04T02:57:22;7.77;;;3.07;;
15655;SDS011;7928;43.614;1.456;2023-12-04T02:59:49;4.13;;;2.27;;
15655;SDS011;7928;43.614;1.456;2023-12-04T03:02:16;4.13;;;2.10;;
15655;SDS011;7928;43.614;1.456;2023-12-04T03:04:45;2.80;;;1.87;;
15655;SDS011;7928;43.614;1.456;2023-12-04T03:07:12;4.63;;;2.23;;
15655;SDS011;7928;43.614;1.456;2023-12-04T03:09:39;4.17;;;2.70;;
15655;SDS011;7928;43.614;1.456;2023-12-04T03:12:06;5.60;;;2.70;;
15655;SDS011;7928;43.614;1.456;2023-12-04T03:14:34;5.13;;;2.17;;
15655;SDS011;7928;43.614;1.456;2023-12-04T03:17:01;3.53;;;2.10;;
15655;SDS011;7928;43.614;1.456;2023-12-04T03:19:28;4.97;;;2.53;;
15655;SDS011;7928;43.614;1.456;2023-12-04T03:21:55;5.80;;;2.30;;
15655;SDS011;7928;43.614;1.456;2023-12-04T03:24:21;11.60;;;2.53;;
15655;SDS011;7928;43.614;1.456;2023-12-04T03:26:48;2.97;;;2.20;;
15655;SDS011;7928;43.614;1.456;2023-12-04T03:29:15;6.20;;;2.40;;
15655;SDS011;7928;43.614;1.456;2023-12-04T03:31:44;7.03;;;2.83;;
15655;SDS011;7928;43.614;1.456;2023-12-04T03:34:11;3.80;;;1.90;;
15655;SDS011;7928;43.614;1.456;2023-12-04T03:36:37;3.90;;;2.37;;
15655;SDS011;7928;43.614;1.456;2023-12-04T03:39:04;4.33;;;2.57;;
15655;SDS011;7928;43.614;1.456;2023-12-04T03:41:31;7.60;;;2.90;;
15655;SDS011;7928;43.614;1.456;2023-12-04T03:43:58;6.50;;;2.73;;
15655;SDS011;7928;43.614;1.456;2023-12-04T03:46:25;8.47;;;2.43;;
15655;SDS011;7928;43.614;1.456;2023-12-04T03:48:53;3.80;;;2.37;;
15655;SDS011;7928;43.614;1.456;2023-12-04T03:51:21;3.57;;;2.77;;
15655;SDS011;7928;43.614;1.456;2023-12-04T03:53:48;5.07;;;1.97;;
15655;SDS011;7928;43.614;1.456;2023-12-04T03:56:15;4.90;;;2.60;;
15655;SDS011;7928;43.614;1.456;2023-12-04T03:58:42;3.87;;;2.30;;
15655;SDS011;7928;43.614;1.456;2023-12-04T04:01:09;4.77;;;2.90;;
15655;SDS011;7928;43.614;1.456;2023-12-04T04:03:35;4.57;;;2.50;;
15655;SDS011;7928;43.614;1.456;2023-12-04T04:06:04;4.70;;;2.30;;
15655;SDS011;7928;43.614;1.456;2023-12-04T04:08:31;6.00;;;3.10;;
15655;SDS011;7928;43.614;1.456;2023-12-04T04:10:58;4.97;;;2.70;;
15655;SDS011;7928;43.614;1.456;2023-12-04T04:13:25;3.50;;;2.53;;
15655;SDS011;7928;43.614;1.456;2023-12-04T04:15:52;5.97;;;2.60;;
15655;SDS011;7928;43.614;1.456;2023-12-04T04:18:19;9.80;;;2.60;;
15655;SDS011;7928;43.614;1.456;2023-12-04T04:20:46;5.57;;;2.90;;
15655;SDS011;7928;43.614;1.456;2023-12-04T04:23:14;6.20;;;2.60;;
15655;SDS011;7928;43.614;1.456;2023-12-04T04:25:41;9.23;;;3.73;;
15655;SDS011;7928;43.614;1.456;2023-12-04T04:28:08;6.93;;;3.30;;
15655;SDS011;7928;43.614;1.456;2023-12-04T04:30:35;6.23;;;3.00;;
15655;SDS011;7928;43.614;1.456;2023-12-04T04:33:02;7.93;;;2.90;;
15655;SDS011;7928;43.614;1.456;2023-12-04T04:35:30;2.93;;;2.53;;
15655;SDS011;7928;43.614;1.456;2023-12-04T04:37:57;7.27;;;3.00;;
15655;SDS011;7928;43.614;1.456;2023-12-04T04:40:25;7.77;;;2.60;;
15655;SDS011;7928;43.614;1.456;2023-12-04T04:42:52;8.03;;;3.20;;
15655;SDS011;7928;43.614;1.456;2023-12-04T04:45:19;4.17;;;2.50;;
15655;SDS011;7928;43.614;1.456;2023-12-04T04:47:46;11.43;;;3.70;;
15655;SDS011;7928;43.614;1.456;2023-12-04T04:50:13;5.27;;;2.50;;
15655;SDS011;7928;43.614;1.456;2023-12-04T04:52:40;5.37;;;3.17;;
15655;SDS011;7928;43.614;1.456;2023-12-04T04:55:07;6.93;;;3.17;;
15655;SDS011;7928;43.614;1.456;2023-12-04T04:57:35;9.60;;;4.17;;
15655;SDS011;7928;43.614;1.456;2023-12-04T05:00:02;6.40;;;3.30;;
15655;SDS011;7928;43.614;1.456;2023-12-04T05:02:30;4.97;;;3.30;;
15655;SDS011;7928;43.614;1.456;2023-12-04T05:04:57;7.50;;;3.20;;
15655;SDS011;7928;43.614;1.456;2023-12-04T05:07:24;5.63;;;2.93;;
15655;SDS011;7928;43.614;1.456;2023-12-04T05:09:51;6.70;;;3.00;;
15655;SDS011;7928;43.614;1.456;2023-12-04T05:12:18;7.23;;;3.10;;
15655;SDS011;7928;43.614;1.456;2023-12-04T05:14:46;10.43;;;3.40;;
15655;SDS011;7928;43.614;1.456;2023-12-04T05:17:13;4.97;;;3.20;;
15655;SDS011;7928;43.614;1.456;2023-12-04T05:19:40;8.03;;;3.10;;
15655;SDS011;7928;43.614;1.456;2023-12-04T05:22:07;7.23;;;2.90;;
15655;SDS011;7928;43.614;1.456;2023-12-04T05:24:34;10.00;;;3.17;;
15655;SDS011;7928;43.614;1.456;2023-12-04T05:27:01;4.07;;;3.03;;
15655;SDS011;7928;43.614;1.456;2023-12-04T05:29:28;7.60;;;3.50;;
15655;SDS011;7928;43.614;1.456;2023-12-04T05:31:57;7.73;;;2.70;;
15655;SDS011;7928;43.614;1.456;2023-12-04T05:34:24;5.40;;;3.13;;
15655;SDS011;7928;43.614;1.456;2023-12-04T05:36:51;6.30;;;2.97;;
15655;SDS011;7928;43.614;1.456;2023-12-04T05:39:17;6.47;;;2.87;;
15655;SDS011;7928;43.614;1.456;2023-12-04T05:41:44;4.33;;;2.93;;
15655;SDS011;7928;43.614;1.456;2023-12-04T05:44:11;4.93;;;3.00;;
15655;SDS011;7928;43.614;1.456;2023-12-04T05:46:38;5.40;;;3.03;;
15655;SDS011;7928;43.614;1.456;2023-12-04T05:49:07;6.07;;;3.30;;
15655;SDS011;7928;43.614;1.456;2023-12-04T05:51:35;5.57;;;2.90;;
15655;SDS011;7928;43.614;1.456;2023-12-04T05:54:02;6.70;;;3.17;;
15655;SDS011;7928;43.614;1.456;2023-12-04T05:56:29;5.83;;;2.97;;
15655;SDS011;7928;43.614;1.456;2023-12-04T05:58:56;6.50;;;3.60;;
15655;SDS011;7928;43.614;1.456;2023-12-04T06:01:23;5.57;;;2.80;;
15655;SDS011;7928;43.614;1.456;2023-12-04T06:03:50;5.00;;;2.80;;
15655;SDS011;7928;43.614;1.456;2023-12-04T06:06:18;5.90;;;2.87;;
15655;SDS011;7928;43.614;1.456;2023-12-04T06:08:45;4.57;;;3.30;;
15655;SDS011;7928;43.614;1.456;2023-12-04T06:11:12;6.10;;;3.20;;
15655;SDS011;7928;43.614;1.456;2023-12-04T06:13:39;5.57;;;3.27;;
15655;SDS011;7928;43.614;1.456;2023-12-04T06:16:07;8.53;;;4.53;;
15655;SDS011;7928;43.614;1.456;2023-12-04T06:18:34;9.87;;;3.07;;
15655;SDS011;7928;43.614;1.456;2023-12-04T06:21:01;5.03;;;2.90;;
15655;SDS011;7928;43.614;1.456;2023-12-04T06:23:30;7.73;;;3.10;;
15655;SDS011;7928;43.614;1.456;2023-12-04T06:25:58;7.00;;;3.50;;
15655;SDS011;7928;43.614;1.456;2023-12-04T06:28:25;8.67;;;4.70;;
15655;SDS011;7928;43.614;1.456;2023-12-04T06:30:53;5.13;;;2.77;;
15655;SDS011;7928;43.614;1.456;2023-12-04T06:33:20;5.83;;;3.03;;
15655;SDS011;7928;43.614;1.456;2023-12-04T06:35:48;7.63;;;3.13;;
15655;SDS011;7928;43.614;1.456;2023-12-04T06:38:15;7.00;;;3.17;;
15655;SDS011;7928;43.614;1.456;2023-12-04T06:40:45;6.57;;;2.70;;
15655;SDS011;7928;43.614;1.456;2023-12-04T06:43:13;10.03;;;3.73;;
15655;SDS011;7928;43.614;1.456;2023-12-04T06:45:41;6.47;;;3.47;;
15655;SDS011;7928;43.614;1.456;2023-12-04T06:48:09;8.20;;;3.43;;
15655;SDS011;7928;43.614;1.456;2023-12-04T06:50:39;5.30;;;3.20;;
15655;SDS011;7928;43.614;1.456;2023-12-04T06:53:06;11.70;;;3.50;;
15655;SDS011;7928;43.614;1.456;2023-12-04T06:55:33;5.17;;;3.40;;
15655;SDS011;7928;43.614;1.456;2023-12-04T06:58:01;9.70;;;4.80;;
15655;SDS011;7928;43.614;1.456;2023-12-04T07:00:28;8.30;;;3.63;;
15655;SDS011;7928;43.614;1.456;2023-12-04T07:02:55;6.07;;;3.30;;
15655;SDS011;7928;43.614;1.456;2023-12-04T07:05:22;4.77;;;3.03;;
15655;SDS011;7928;43.614;1.456;2023-12-04T07:07:49;7.40;;;3.60;;
15655;SDS011;7928;43.614;1.456;2023-12-04T07:10:16;9.40;;;4.03;;
15655;SDS011;7928;43.614;1.456;2023-12-04T07:12:43;6.57;;;3.57;;
15655;SDS011;7928;43.614;1.456;2023-12-04T07:15:12;7.90;;;3.50;;
15655;SDS011;7928;43.614;1.456;2023-12-04T07:17:39;8.70;;;3.50;;
15655;SDS011;7928;43.614;1.456;2023-12-04T07:20:06;9.17;;;3.73;;
15655;SDS011;7928;43.614;1.456;2023-12-04T07:22:33;9.47;;;3.70;;
15655;SDS011;7928;43.614;1.456;2023-12-04T07:25:00;9.73;;;3.87;;
15655;SDS011;7928;43.614;1.456;2023-12-04T07:27:27;9.33;;;4.03;;
15655;SDS011;7928;43.614;1.456;2023-12-04T07:29:54;8.97;;;3.73;;
15655;SDS011;7928;43.614;1.456;2023-12-04T07:32:23;8.57;;;4.27;;
15655;SDS011;7928;43.614;1.456;2023-12-04T07:34:49;10.63;;;4.43;;
15655;SDS011;7928;43.614;1.456;2023-12-04T07:37:16;6.70;;;4.30;;
15655;SDS011;7928;43.614;1.456;2023-12-04T07:39:43;9.10;;;4.53;;
15655;SDS011;7928;43.614;1.456;2023-12-04T07:42:11;9.80;;;3.83;;
15655;SDS011;7928;43.614;1.456;2023-12-04T07:44:38;6.43;;;3.90;;
15655;SDS011;7928;43.614;1.456;2023-12-04T07:47:05;8.43;;;3.67;;
15655;SDS011;7928;43.614;1.456;2023-12-04T07:49:34;6.17;;;3.73;;
15655;SDS011;7928;43.614;1.456;2023-12-04T07:52:00;6.67;;;3.73;;
15655;SDS011;7928;43.614;1.456;2023-12-04T07:54:27;9.40;;;4.33;;
15655;SDS011;7928;43.614;1.456;2023-12-04T07:56:54;9.80;;;4.37;;
15655;SDS011;7928;43.614;1.456;2023-12-04T07:59:21;9.43;;;5.33;;
15655;SDS011;7928;43.614;1.456;2023-12-04T08:01:48;9.93;;;4.83;;
15655;SDS011;7928;43.614;1.456;2023-12-04T08:04:15;5.97;;;4.20;;
15655;SDS011;7928;43.614;1.456;2023-12-04T08:06:43;6.83;;;3.53;;
15655;SDS011;7928;43.614;1.456;2023-12-04T08:09:10;4.40;;;2.93;;
15655;SDS011;7928;43.614;1.456;2023-12-04T08:11:37;7.53;;;3.57;;
15655;SDS011;7928;43.614;1.456;2023-12-04T08:14:05;8.50;;;3.80;;
15655;SDS011;7928;43.614;1.456;2023-12-04T08:16:32;9.40;;;3.87;;
15655;SDS011;7928;43.614;1.456;2023-12-04T08:18:59;6.43;;;3.30;;
15655;SDS011;7928;43.614;1.456;2023-12-04T08:21:26;8.00;;;3.13;;
15655;SDS011;7928;43.614;1.456;2023-12-04T08:23:55;8.97;;;3.67;;
15655;SDS011;7928;43.614;1.456;2023-12-04T08:26:22;8.03;;;3.23;;
15655;SDS011;7928;43.614;1.456;2023-12-04T08:28:49;9.87;;;3.53;;
15655;SDS011;7928;43.614;1.456;2023-12-04T08:31:16;8.50;;;3.80;;
15655;SDS011;7928;43.614;1.456;2023-12-04T08:33:43;9.40;;;3.67;;
15655;SDS011;7928;43.614;1.456;2023-12-04T08:36:10;8.23;;;3.80;;
15655;SDS011;7928;43.614;1.456;2023-12-04T08:38:38;7.67;;;3.63;;
15655;SDS011;7928;43.614;1.456;2023-12-04T08:41:06;7.17;;;3.13;;
15655;SDS011;7928;43.614;1.456;2023-12-04T08:43:33;7.43;;;3.20;;
15655;SDS011;7928;43.614;1.456;2023-12-04T08:46:00;5.33;;;3.17;;
15655;SDS011;7928;43.614;1.456;2023-12-04T08:48:27;9.10;;;3.27;;
15655;SDS011;7928;43.614;1.456;2023-12-04T08:50:54;9.47;;;4.10;;
15655;SDS011;7928;43.614;1.456;2023-12-04T08:53:22;9.13;;;3.27;;
15655;SDS011;7928;43.614;1.456;2023-12-04T08:55:49;5.43;;;3.20;;
15655;SDS011;7928;43.614;1.456;2023-12-04T08:58:19;7.73;;;3.30;;
15655;SDS011;7928;43.614;1.456;2023-12-04T09:00:46;6.67;;;3.30;;
15655;SDS011;7928;43.614;1.456;2023-12-04T09:03:13;8.47;;;3.47;;
15655;SDS011;7928;43.614;1.456;2023-12-04T09:05:40;8.67;;;3.37;;
15655;SDS011;7928;43.614;1.456;2023-12-04T09:08:07;11.73;;;4.03;;
15655;SDS011;7928;43.614;1.456;2023-12-04T09:10:34;10.37;;;3.37;;
15655;SDS011;7928;43.614;1.456;2023-12-04T09:13:01;8.47;;;4.00;;
15655;SDS011;7928;43.614;1.456;2023-12-04T09:15:29;7.57;;;3.63;;
15655;SDS011;7928;43.614;1.456;2023-12-04T09:17:57;5.30;;;3.33;;
15655;SDS011;7928;43.614;1.456;2023-12-04T09:20:24;10.03;;;3.70;;
15655;SDS011;7928;43.614;1.456;2023-12-04T09:22:51;10.60;;;4.03;;
15655;SDS011;7928;43.614;1.456;2023-12-04T09:25:18;9.57;;;4.00;;
15655;SDS011;7928;43.614;1.456;2023-12-04T09:27:45;8.60;;;3.97;;
15655;SDS011;7928;43.614;1.456;2023-12-04T09:30:12;8.37;;;3.50;;
15655;SDS011;7928;43.614;1.456;2023-12-04T09:32:41;8.03;;;3.77;;
15655;SDS011;7928;43.614;1.456;2023-12-04T09:35:08;6.87;;;3.20;;
15655;SDS011;7928;43.614;1.456;2023-12-04T09:37:35;9.63;;;3.70;;
15655;SDS011;7928;43.614;1.456;2023-12-04T09:40:03;11.40;;;3.80;;
15655;SDS011;7928;43.614;1.456;2023-12-04T09:42:30;14.50;;;3.93;;
15655;SDS011;7928;43.614;1.456;2023-12-04T09:44:58;5.83;;;3.10;;
15655;SDS011;7928;43.614;1.456;2023-12-04T09:47:26;6.23;;;2.93;;
15655;SDS011;7928;43.614;1.456;2023-12-04T09:49:56;7.17;;;2.77;;
15655;SDS011;7928;43.614;1.456;2023-12-04T09:52:23;6.63;;;2.73;;
15655;SDS011;7928;43.614;1.456;2023-12-04T09:54:53;7.70;;;2.93;;
15655;SDS011;7928;43.614;1.456;2023-12-04T09:57:20;6.33;;;2.43;;
15655;SDS011;7928;43.614;1.456;2023-12-04T09:59:49;6.17;;;2.70;;
15655;SDS011;7928;43.614;1.456;2023-12-04T10:02:18;6.80;;;2.77;;
15655;SDS011;7928;43.614;1.456;2023-12-04T10:04:46;6.07;;;3.40;;
15655;SDS011;7928;43.614;1.456;2023-12-04T10:07:15;8.37;;;2.83;;
15655;SDS011;7928;43.614;1.456;2023-12-04T10:09:42;6.60;;;2.70;;
15655;SDS011;7928;43.614;1.456;2023-12-04T10:12:09;9.73;;;3.30;;
15655;SDS011;7928;43.614;1.456;2023-12-04T10:14:36;6.60;;;3.23;;
15655;SDS011;7928;43.614;1.456;2023-12-04T10:17:13;6.47;;;2.40;;
15655;SDS011;7928;43.614;1.456;2023-12-04T10:19:41;7.67;;;2.87;;
15655;SDS011;7928;43.614;1.456;2023-12-04T10:22:08;6.10;;;2.20;;
15655;SDS011;7928;43.614;1.456;2023-12-04T10:24:37;6.37;;;3.20;;
15655;SDS011;7928;43.614;1.456;2023-12-04T10:27:05;10.13;;;2.57;;
15655;SDS011;7928;43.614;1.456;2023-12-04T10:29:42;5.60;;;2.67;;
15655;SDS011;7928;43.614;1.456;2023-12-04T10:32:10;6.73;;;2.90;;
15655;SDS011;7928;43.614;1.456;2023-12-04T10:34:37;7.67;;;2.90;;
15655;SDS011;7928;43.614;1.456;2023-12-04T10:37:05;7.63;;;2.50;;
15655;SDS011;7928;43.614;1.456;2023-12-04T10:39:33;4.97;;;2.73;;
15655;SDS011;7928;43.614;1.456;2023-12-04T10:42:22;4.67;;;2.03;;
15655;SDS011;7928;43.614;1.456;2023-12-04T10:44:51;6.73;;;3.17;;
15655;SDS011;7928;43.614;1.456;2023-12-04T10:47:19;8.13;;;2.60;;
15655;SDS011;7928;43.614;1.456;2023-12-04T10:49:47;8.50;;;2.37;;
15655;SDS011;7928;43.614;1.456;2023-12-04T10:52:15;4.07;;;2.00;;
15655;SDS011;7928;43.614;1.456;2023-12-04T10:54:44;7.43;;;2.10;;
15655;SDS011;7928;43.614;1.456;2023-12-04T10:57:13;4.00;;;1.97;;
15655;SDS011;7928;43.614;1.456;2023-12-04T10:59:56;6.07;;;2.27;;
15655;SDS011;7928;43.614;1.456;2023-12-04T11:02:25;5.23;;;1.87;;
15655;SDS011;7928;43.614;1.456;2023-12-04T11:04:54;3.95;;;2.17;;
15655;SDS011;7928;43.614;1.456;2023-12-04T11:07:30;4.45;;;2.00;;
15655;SDS011;7928;43.614;1.456;2023-12-04T11:09:59;5.28;;;1.90;;
15655;SDS011;7928;43.614;1.456;2023-12-04T11:12:28;4.20;;;2.30;;
15655;SDS011;7928;43.614;1.456;2023-12-04T11:14:59;3.60;;;1.70;;
15655;SDS011;7928;43.614;1.456;2023-12-04T11:17:30;3.30;;;1.73;;
15655;SDS011;7928;43.614;1.456;2023-12-04T11:20:02;4.50;;;1.83;;
15655;SDS011;7928;43.614;1.456;2023-12-04T11:22:35;2.38;;;1.90;;
15655;SDS011;7928;43.614;1.456;2023-12-04T11:25:05;5.50;;;1.95;;
15655;SDS011;7928;43.614;1.456;2023-12-04T11:27:34;4.20;;;2.17;;
15655;SDS011;7928;43.614;1.456;2023-12-04T11:30:02;6.28;;;1.77;;
15655;SDS011;7928;43.614;1.456;2023-12-04T11:32:31;3.97;;;1.90;;
15655;SDS011;7928;43.614;1.456;2023-12-04T11:34:59;4.20;;;1.73;;
15655;SDS011;7928;43.614;1.456;2023-12-04T11:37:27;3.88;;;1.92;;
15655;SDS011;7928;43.614;1.456;2023-12-04T11:39:54;5.27;;;2.10;;
15655;SDS011;7928;43.614;1.456;2023-12-04T11:42:23;4.50;;;1.97;;
15655;SDS011;7928;43.614;1.456;2023-12-04T11:44:57;3.87;;;1.60;;
15655;SDS011;7928;43.614;1.456;2023-12-04T11:47:24;4.33;;;1.80;;
15655;SDS011;7928;43.614;1.456;2023-12-04T11:49:51;6.13;;;1.70;;
15655;SDS011;7928;43.614;1.456;2023-12-04T11:52:18;4.00;;;1.50;;
15655;SDS011;7928;43.614;1.456;2023-12-04T11:55:00;4.03;;;2.07;;
15655;SDS011;7928;43.614;1.456;2023-12-04T11:57:31;6.63;;;1.70;;
15655;SDS011;7928;43.614;1.456;2023-12-04T12:00:13;2.97;;;1.40;;
15655;SDS011;7928;43.614;1.456;2023-12-04T12:02:47;10.00;;;1.60;;
15655;SDS011;7928;43.614;1.456;2023-12-04T12:05:27;4.73;;;1.77;;
15655;SDS011;7928;43.614;1.456;2023-12-04T12:07:55;6.13;;;1.50;;
15655;SDS011;7928;43.614;1.456;2023-12-04T12:10:22;4.70;;;1.53;;
15655;SDS011;7928;43.614;1.456;2023-12-04T12:12:49;4.30;;;1.40;;
15655;SDS011;7928;43.614;1.456;2023-12-04T12:15:19;3.47;;;1.40;;
15655;SDS011;7928;43.614;1.456;2023-12-04T12:17:46;7.70;;;1.93;;
15655;SDS011;7928;43.614;1.456;2023-12-04T12:20:13;4.13;;;1.33;;
15655;SDS011;7928;43.614;1.456;2023-12-04T12:22:40;3.80;;;1.57;;
15655;SDS011;7928;43.614;1.456;2023-12-04T12:25:09;11.57;;;1.77;;
15655;SDS011;7928;43.614;1.456;2023-12-04T12:27:37;4.83;;;1.47;;
15655;SDS011;7928;43.614;1.456;2023-12-04T12:30:05;6.57;;;1.70;;
15655;SDS011;7928;43.614;1.456;2023-12-04T12:32:34;6.03;;;1.97;;
15655;SDS011;7928;43.614;1.456;2023-12-04T12:35:00;4.40;;;1.80;;
15655;SDS011;7928;43.614;1.456;2023-12-04T12:37:28;4.33;;;1.83;;
15655;SDS011;7928;43.614;1.456;2023-12-04T12:39:55;2.20;;;1.20;;
15655;SDS011;7928;43.614;1.456;2023-12-04T12:42:23;6.37;;;1.97;;
15655;SDS011;7928;43.614;1.456;2023-12-04T12:44:51;7.13;;;2.17;;
15655;SDS011;7928;43.614;1.456;2023-12-04T12:47:19;5.83;;;2.30;;
15655;SDS011;7928;43.614;1.456;2023-12-04T12:49:47;5.90;;;1.90;;
15655;SDS011;7928;43.614;1.456;2023-12-04T12:52:14;7.27;;;2.53;;
15655;SDS011;7928;43.614;1.456;2023-12-04T12:54:42;5.50;;;1.93;;
15655;SDS011;7928;43.614;1.456;2023-12-04T12:57:10;4.67;;;1.60;;
15655;SDS011;7928;43.614;1.456;2023-12-04T12:59:38;5.60;;;2.20;;
15655;SDS011;7928;43.614;1.456;2023-12-04T13:02:05;7.47;;;2.60;;
15655;SDS011;7928;43.614;1.456;2023-12-04T13:04:36;6.00;;;1.80;;
15655;SDS011;7928;43.614;1.456;2023-12-04T13:07:04;6.77;;;2.13;;
15655;SDS011;7928;43.614;1.456;2023-12-04T13:09:32;7.17;;;2.17;;
15655;SDS011;7928;43.614;1.456;2023-12-04T13:12:00;4.93;;;1.93;;
15655;SDS011;7928;43.614;1.456;2023-12-04T13:14:27;8.73;;;2.03;;
15655;SDS011;7928;43.614;1.456;2023-12-04T13:16:54;3.53;;;1.80;;
15655;SDS011;7928;43.614;1.456;2023-12-04T13:19:22;6.73;;;2.17;;
15655;SDS011;7928;43.614;1.456;2023-12-04T13:21:49;6.33;;;2.27;;
15655;SDS011;7928;43.614;1.456;2023-12-04T13:24:17;4.07;;;2.07;;
15655;SDS011;7928;43.614;1.456;2023-12-04T13:26:44;4.97;;;2.13;;
15655;SDS011;7928;43.614;1.456;2023-12-04T13:29:12;9.60;;;2.83;;
15655;SDS011;7928;43.614;1.456;2023-12-04T13:31:42;5.23;;;2.20;;
15655;SDS011;7928;43.614;1.456;2023-12-04T13:34:11;4.70;;;2.47;;
15655;SDS011;7928;43.614;1.456;2023-12-04T13:36:38;6.97;;;2.80;;
15655;SDS011;7928;43.614;1.456;2023-12-04T13:39:06;7.47;;;2.60;;
15655;SDS011;7928;43.614;1.456;2023-12-04T13:41:42;4.27;;;2.00;;
15655;SDS011;7928;43.614;1.456;2023-12-04T13:44:28;7.27;;;2.90;;
15655;SDS011;7928;43.614;1.456;2023-12-04T13:46:56;5.17;;;1.90;;
15655;SDS011;7928;43.614;1.456;2023-12-04T13:49:23;4.87;;;2.20;;
15655;SDS011;7928;43.614;1.456;2023-12-04T13:51:49;5.37;;;2.40;;
15655;SDS011;7928;43.614;1.456;2023-12-04T13:54:18;6.53;;;2.47;;
15655;SDS011;7928;43.614;1.456;2023-12-04T13:56:47;5.30;;;2.00;;
15655;SDS011;7928;43.614;1.456;2023-12-04T13:59:22;8.10;;;3.03;;
15655;SDS011;7928;43.614;1.456;2023-12-04T14:01:49;7.17;;;2.27;;
15655;SDS011;7928;43.614;1.456;2023-12-04T14:04:19;9.30;;;3.70;;
15655;SDS011;7928;43.614;1.456;2023-12-04T14:06:48;4.87;;;2.67;;
15655;SDS011;7928;43.614;1.456;2023-12-04T14:09:15;7.37;;;2.63;;
15655;SDS011;7928;43.614;1.456;2023-12-04T14:11:42;7.07;;;2.40;;
15655;SDS011;7928;43.614;1.456;2023-12-04T14:14:12;5.40;;;2.23;;
15655;SDS011;7928;43.614;1.456;2023-12-04T14:16:39;8.80;;;3.00;;
15655;SDS011;7928;43.614;1.456;2023-12-04T14:19:07;8.83;;;2.43;;
15655;SDS011;7928;43.614;1.456;2023-12-04T14:21:34;5.17;;;2.07;;
15655;SDS011;7928;43.614;1.456;2023-12-04T14:24:01;5.67;;;2.20;;
15655;SDS011;7928;43.614;1.456;2023-12-04T14:26:28;9.90;;;2.63;;
15655;SDS011;7928;43.614;1.456;2023-12-04T14:28:55;6.00;;;2.30;;
15655;SDS011;7928;43.614;1.456;2023-12-04T14:31:27;4.80;;;2.33;;
15655;SDS011;7928;43.614;1.456;2023-12-04T14:33:55;5.77;;;2.33;;
15655;SDS011;7928;43.614;1.456;2023-12-04T14:36:22;5.87;;;2.20;;
15655;SDS011;7928;43.614;1.456;2023-12-04T14:38:49;4.00;;;2.67;;
15655;SDS011;7928;43.614;1.456;2023-12-04T14:41:15;6.53;;;3.07;;
15655;SDS011;7928;43.614;1.456;2023-12-04T14:43:42;10.63;;;2.97;;
15655;SDS011;7928;43.614;1.456;2023-12-04T14:46:09;6.97;;;3.30;;
15655;SDS011;7928;43.614;1.456;2023-12-04T14:48:41;6.63;;;2.60;;
15655;SDS011;7928;43.614;1.456;2023-12-04T14:51:08;7.87;;;3.47;;
15655;SDS011;7928;43.614;1.456;2023-12-04T14:53:36;10.73;;;3.23;;
15655;SDS011;7928;43.614;1.456;2023-12-04T14:56:12;8.43;;;2.90;;
15655;SDS011;7928;43.614;1.456;2023-12-04T14:58:56;8.13;;;3.50;;
15655;SDS011;7928;43.614;1.456;2023-12-04T15:01:36;4.37;;;2.73;;
15655;SDS011;7928;43.614;1.456;2023-12-04T15:04:32;5.53;;;2.47;;